FDX791 KLAX-KSFO
Flight info
| Callsign | FDX791 |
|---|---|
| Flight time | 0h 51m |
| Altitude | 32000 |
| Route | SUMMR2 STOKD SERFR SERFR4 |
| Aircraft | B738/M-SDE2E3FGHIRWXY/LB1 |
Departure
| Time | 2026-04-21 16:08 |
|---|---|
| Airport | Los Angeles International Airport (KLAX) |
Arrival
| Time | 2026-04-21 16:59 |
|---|---|
| Airport | San Francisco International Airport (KSFO) |
| Time | Latitude | Longitude | Altitude | Speed | Heading |
|---|---|---|---|---|---|
| 2026-04-21 15:29 | 33.93402 | -118.38772 | 125 ft | 0 kts | 174° |
| 2026-04-21 15:55 | 33.93412 | -118.38773 | 122 ft | 4 kts | 172° |
| 2026-04-21 15:55 | 33.93438 | -118.38779 | 122 ft | 4 kts | 164° |
| 2026-04-21 15:55 | 33.93464 | -118.38790 | 120 ft | 4 kts | 158° |
| 2026-04-21 15:56 | 33.93488 | -118.38803 | 123 ft | 4 kts | 150° |
| 2026-04-21 15:56 | 33.93511 | -118.38821 | 122 ft | 4 kts | 143° |
| 2026-04-21 15:56 | 33.93532 | -118.38841 | 120 ft | 4 kts | 133° |
| 2026-04-21 15:56 | 33.93548 | -118.38867 | 120 ft | 4 kts | 111° |
| 2026-04-21 15:57 | 33.93551 | -118.38886 | 120 ft | 0 kts | 83° |
| 2026-04-21 16:04 | 33.93553 | -118.38868 | 121 ft | 6 kts | 83° |
| 2026-04-21 16:04 | 33.93558 | -118.38820 | 125 ft | 11 kts | 83° |
| 2026-04-21 16:04 | 33.93572 | -118.38691 | 124 ft | 12 kts | 83° |
| 2026-04-21 16:05 | 33.93583 | -118.38585 | 123 ft | 14 kts | 83° |
| 2026-04-21 16:05 | 33.93596 | -118.38460 | 123 ft | 16 kts | 83° |
| 2026-04-21 16:05 | 33.93609 | -118.38336 | 121 ft | 12 kts | 82° |
| 2026-04-21 16:05 | 33.93629 | -118.38292 | 123 ft | 0 kts | 39° |
| 2026-04-21 16:06 | 33.93630 | -118.38291 | 123 ft | 1 kts | 38° |
| 2026-04-21 16:06 | 33.93657 | -118.38282 | 123 ft | 7 kts | 7° |
| 2026-04-21 16:06 | 33.93714 | -118.38290 | 122 ft | 9 kts | 328° |
| 2026-04-21 16:06 | 33.93729 | -118.38357 | 125 ft | 9 kts | 266° |
| 2026-04-21 16:07 | 33.93720 | -118.38434 | 124 ft | 12 kts | 262° |
| 2026-04-21 16:07 | 33.93690 | -118.38721 | 125 ft | 73 kts | 263° |
| 2026-04-21 16:07 | 33.93592 | -118.39654 | 123 ft | 147 kts | 263° |
| 2026-04-21 16:07 | 33.93466 | -118.40977 | 718 ft | 160 kts | 263° |
| 2026-04-21 16:08 | 33.93196 | -118.43637 | 2424 ft | 173 kts | 261° |
| 2026-04-21 16:08 | 33.93031 | -118.45225 | 2827 ft | 209 kts | 261° |
| 2026-04-21 16:08 | 33.92901 | -118.47087 | 3158 ft | 234 kts | 265° |
| 2026-04-21 16:09 | 33.92832 | -118.49156 | 3601 ft | 256 kts | 265° |
| 2026-04-21 16:09 | 33.92750 | -118.51322 | 4742 ft | 260 kts | 264° |
| 2026-04-21 16:09 | 33.92577 | -118.53470 | 6101 ft | 255 kts | 262° |
| 2026-04-21 16:09 | 33.92393 | -118.55578 | 7266 ft | 254 kts | 261° |
| 2026-04-21 16:10 | 33.92207 | -118.57716 | 8155 ft | 260 kts | 261° |
| 2026-04-21 16:10 | 33.92021 | -118.59902 | 9118 ft | 263 kts | 260° |
| 2026-04-21 16:10 | 33.91836 | -118.62107 | 10104 ft | 267 kts | 259° |
| 2026-04-21 16:10 | 33.91711 | -118.64406 | 10753 ft | 289 kts | 263° |
| 2026-04-21 16:11 | 33.91695 | -118.66907 | 11430 ft | 305 kts | 265° |
| 2026-04-21 16:11 | 33.91710 | -118.69478 | 12371 ft | 309 kts | 264° |
| 2026-04-21 16:11 | 33.91723 | -118.72084 | 13397 ft | 314 kts | 264° |
| 2026-04-21 16:11 | 33.91726 | -118.74721 | 14437 ft | 316 kts | 263° |
| 2026-04-21 16:12 | 33.91723 | -118.76474 | 15106 ft | 318 kts | 263° |
| 2026-04-21 16:12 | 33.91710 | -118.80057 | 16362 ft | 322 kts | 263° |
| 2026-04-21 16:12 | 33.91697 | -118.82728 | 17243 ft | 325 kts | 263° |
| 2026-04-21 16:12 | 33.91723 | -118.85472 | 18129 ft | 330 kts | 265° |
| 2026-04-21 16:13 | 33.91812 | -118.88248 | 18897 ft | 335 kts | 266° |
| 2026-04-21 16:13 | 33.91913 | -118.91062 | 19634 ft | 338 kts | 266° |
| 2026-04-21 16:13 | 33.92008 | -118.93905 | 20414 ft | 341 kts | 266° |
| 2026-04-21 16:13 | 33.92095 | -118.96767 | 21187 ft | 344 kts | 266° |
| 2026-04-21 16:14 | 33.92193 | -118.99652 | 21924 ft | 349 kts | 269° |
| 2026-04-21 16:14 | 33.92755 | -119.02554 | 22607 ft | 366 kts | 285° |
| 2026-04-21 16:14 | 33.93984 | -119.05300 | 23352 ft | 377 kts | 294° |
| 2026-04-21 16:14 | 33.95403 | -119.07975 | 23996 ft | 381 kts | 295° |
| 2026-04-21 16:15 | 33.96855 | -119.10668 | 24569 ft | 385 kts | 295° |
| 2026-04-21 16:15 | 33.98295 | -119.13397 | 25133 ft | 388 kts | 294° |
| 2026-04-21 16:15 | 33.99728 | -119.16160 | 25754 ft | 388 kts | 294° |
| 2026-04-21 16:15 | 34.01312 | -119.18812 | 26515 ft | 397 kts | 306° |
| 2026-04-21 16:16 | 34.03463 | -119.20949 | 27298 ft | 403 kts | 316° |
| 2026-04-21 16:16 | 34.05748 | -119.22906 | 28035 ft | 403 kts | 317° |
| 2026-04-21 16:16 | 34.08059 | -119.24835 | 28716 ft | 403 kts | 317° |
| 2026-04-21 16:16 | 34.10364 | -119.26757 | 29411 ft | 402 kts | 317° |
| 2026-04-21 16:17 | 34.12650 | -119.28681 | 30144 ft | 400 kts | 316° |
| 2026-04-21 16:17 | 34.14155 | -119.29958 | 30558 ft | 398 kts | 316° |
| 2026-04-21 16:17 | 34.16404 | -119.31878 | 31255 ft | 393 kts | 315° |
| 2026-04-21 16:17 | 34.18623 | -119.33782 | 31859 ft | 391 kts | 315° |
| 2026-04-21 16:18 | 34.20831 | -119.35687 | 32078 ft | 389 kts | 315° |
| 2026-04-21 16:18 | 34.25225 | -119.39486 | 32093 ft | 388 kts | 315° |
| 2026-04-21 16:19 | 34.29626 | -119.43297 | 32085 ft | 390 kts | 315° |
| 2026-04-21 16:19 | 34.34045 | -119.47124 | 32084 ft | 392 kts | 315° |
| 2026-04-21 16:20 | 34.38487 | -119.50973 | 32055 ft | 392 kts | 315° |
| 2026-04-21 16:20 | 34.42779 | -119.54974 | 32072 ft | 383 kts | 307° |
| 2026-04-21 16:21 | 34.46487 | -119.59538 | 32075 ft | 379 kts | 304° |
| 2026-04-21 16:21 | 34.50104 | -119.64171 | 32074 ft | 378 kts | 304° |
| 2026-04-21 16:22 | 34.53760 | -119.68766 | 32080 ft | 378 kts | 305° |
| 2026-04-21 16:22 | 34.57445 | -119.73335 | 32086 ft | 378 kts | 305° |
| 2026-04-21 16:23 | 34.61139 | -119.77904 | 32051 ft | 379 kts | 305° |
| 2026-04-21 16:23 | 34.64833 | -119.82474 | 32067 ft | 380 kts | 305° |
| 2026-04-21 16:24 | 34.68545 | -119.87072 | 32075 ft | 382 kts | 305° |
| 2026-04-21 16:24 | 34.72278 | -119.91701 | 32070 ft | 384 kts | 305° |
| 2026-04-21 16:25 | 34.75989 | -119.96307 | 32050 ft | 383 kts | 305° |
| 2026-04-21 16:25 | 34.79708 | -120.00928 | 32057 ft | 381 kts | 305° |
| 2026-04-21 16:26 | 34.83415 | -120.05543 | 32051 ft | 381 kts | 305° |
| 2026-04-21 16:26 | 34.87122 | -120.10166 | 32055 ft | 382 kts | 305° |
| 2026-04-21 16:27 | 34.90841 | -120.14812 | 32055 ft | 384 kts | 305° |
| 2026-04-21 16:27 | 34.94570 | -120.19474 | 32054 ft | 384 kts | 305° |
| 2026-04-21 16:28 | 34.98309 | -120.24154 | 32059 ft | 385 kts | 305° |
| 2026-04-21 16:28 | 35.02044 | -120.28836 | 32066 ft | 385 kts | 305° |
| 2026-04-21 16:29 | 35.05771 | -120.33516 | 32063 ft | 385 kts | 304° |
| 2026-04-21 16:29 | 35.09517 | -120.38192 | 32060 ft | 387 kts | 306° |
| 2026-04-21 16:30 | 35.13483 | -120.42676 | 32048 ft | 390 kts | 308° |
| 2026-04-21 16:30 | 35.17514 | -120.47119 | 32060 ft | 389 kts | 308° |
| 2026-04-21 16:31 | 35.21494 | -120.51549 | 32060 ft | 389 kts | 308° |
| 2026-04-21 16:31 | 35.25485 | -120.56026 | 32069 ft | 390 kts | 308° |
| 2026-04-21 16:32 | 35.29488 | -120.60535 | 32051 ft | 392 kts | 308° |
| 2026-04-21 16:32 | 35.33509 | -120.65070 | 32066 ft | 394 kts | 308° |
| 2026-04-21 16:33 | 35.37541 | -120.69620 | 32055 ft | 394 kts | 308° |
| 2026-04-21 16:33 | 35.41581 | -120.74188 | 32055 ft | 396 kts | 308° |
| 2026-04-21 16:34 | 35.45616 | -120.78754 | 32024 ft | 393 kts | 308° |
| 2026-04-21 16:34 | 35.49676 | -120.83227 | 32060 ft | 395 kts | 312° |
| 2026-04-21 16:35 | 35.54073 | -120.87323 | 32052 ft | 398 kts | 315° |
| 2026-04-21 16:35 | 35.58531 | -120.91353 | 32057 ft | 399 kts | 315° |
| 2026-04-21 16:36 | 35.62982 | -120.95439 | 32045 ft | 400 kts | 314° |
| 2026-04-21 16:36 | 35.65208 | -120.97487 | 32361 ft | 399 kts | 309° |
| 2026-04-21 16:36 | 35.67418 | -120.99532 | 32223 ft | 395 kts | 309° |
| 2026-04-21 16:37 | 35.71773 | -121.03600 | 32061 ft | 395 kts | 308° |
| 2026-04-21 16:37 | 35.76165 | -121.07723 | 32048 ft | 399 kts | 309° |
| 2026-04-21 16:38 | 35.80535 | -121.11815 | 32036 ft | 402 kts | 309° |
| 2026-04-21 16:38 | 35.84996 | -121.15991 | 32044 ft | 403 kts | 309° |
| 2026-04-21 16:39 | 35.89470 | -121.20187 | 31600 ft | 404 kts | 309° |
| 2026-04-21 16:39 | 35.91707 | -121.22283 | 31134 ft | 403 kts | 309° |
| 2026-04-21 16:39 | 35.93938 | -121.24380 | 30689 ft | 404 kts | 309° |
| 2026-04-21 16:39 | 35.96181 | -121.26490 | 30217 ft | 405 kts | 309° |
| 2026-04-21 16:40 | 35.98427 | -121.28606 | 29637 ft | 407 kts | 309° |
| 2026-04-21 16:40 | 36.00673 | -121.30720 | 29186 ft | 404 kts | 310° |
| 2026-04-21 16:40 | 36.02897 | -121.32810 | 28816 ft | 399 kts | 310° |
| 2026-04-21 16:40 | 36.05096 | -121.34881 | 28351 ft | 395 kts | 310° |
| 2026-04-21 16:41 | 36.07275 | -121.36915 | 27992 ft | 393 kts | 312° |
| 2026-04-21 16:41 | 36.09552 | -121.38810 | 27605 ft | 395 kts | 316° |
| 2026-04-21 16:41 | 36.13418 | -121.41775 | 26968 ft | 394 kts | 317° |
| 2026-04-21 16:41 | 36.22653 | -121.48828 | 25383 ft | 386 kts | 318° |
| 2026-04-21 16:42 | 36.30531 | -121.54989 | 24047 ft | 381 kts | 320° |
| 2026-04-21 16:42 | 36.32768 | -121.56743 | 23670 ft | 379 kts | 319° |
| 2026-04-21 16:42 | 36.34993 | -121.58490 | 23229 ft | 377 kts | 319° |
| 2026-04-21 16:42 | 36.37196 | -121.60218 | 22844 ft | 372 kts | 320° |
| 2026-04-21 16:43 | 36.39378 | -121.61929 | 22438 ft | 369 kts | 320° |
| 2026-04-21 16:43 | 36.41537 | -121.63626 | 22069 ft | 366 kts | 320° |
| 2026-04-21 16:43 | 36.43681 | -121.65310 | 21379 ft | 362 kts | 320° |
| 2026-04-21 16:43 | 36.50029 | -121.70301 | 20581 ft | 351 kts | 320° |
| 2026-04-21 16:44 | 36.58178 | -121.76740 | 19206 ft | 343 kts | 320° |
| 2026-04-21 16:44 | 36.64583 | -121.81817 | 18087 ft | 338 kts | 321° |
| 2026-04-21 16:44 | 36.66561 | -121.83388 | 17686 ft | 337 kts | 321° |
| 2026-04-21 16:44 | 36.68532 | -121.84953 | 17330 ft | 334 kts | 321° |
| 2026-04-21 16:45 | 36.70487 | -121.86506 | 16980 ft | 332 kts | 321° |
| 2026-04-21 16:45 | 36.72433 | -121.88052 | 16624 ft | 331 kts | 321° |
| 2026-04-21 16:45 | 36.74426 | -121.89493 | 16256 ft | 335 kts | 333° |
| 2026-04-21 16:45 | 36.76678 | -121.90273 | 15956 ft | 336 kts | 343° |
| 2026-04-21 16:46 | 36.78961 | -121.90876 | 15603 ft | 335 kts | 344° |
| 2026-04-21 16:46 | 36.81240 | -121.91463 | 15253 ft | 334 kts | 344° |
| 2026-04-21 16:46 | 36.83517 | -121.92062 | 14911 ft | 334 kts | 344° |
| 2026-04-21 16:46 | 36.85785 | -121.92676 | 14551 ft | 333 kts | 343° |
| 2026-04-21 16:47 | 36.88039 | -121.93297 | 14206 ft | 331 kts | 343° |
| 2026-04-21 16:47 | 36.90247 | -121.93912 | 13875 ft | 329 kts | 343° |
| 2026-04-21 16:47 | 36.92471 | -121.94534 | 13496 ft | 327 kts | 343° |
| 2026-04-21 16:47 | 36.94691 | -121.95156 | 13124 ft | 325 kts | 343° |
| 2026-04-21 16:48 | 36.96862 | -121.95868 | 12830 ft | 320 kts | 339° |
| 2026-04-21 16:48 | 36.99005 | -121.96697 | 12487 ft | 317 kts | 338° |
| 2026-04-21 16:48 | 37.01104 | -121.97541 | 12140 ft | 316 kts | 338° |
| 2026-04-21 16:48 | 37.03191 | -121.98380 | 11790 ft | 315 kts | 338° |
| 2026-04-21 16:49 | 37.05278 | -121.99213 | 11439 ft | 314 kts | 338° |
| 2026-04-21 16:49 | 37.07358 | -122.00036 | 11114 ft | 314 kts | 339° |
| 2026-04-21 16:49 | 37.09420 | -122.00849 | 10736 ft | 316 kts | 339° |
| 2026-04-21 16:49 | 37.11517 | -122.01673 | 10386 ft | 316 kts | 339° |
| 2026-04-21 16:50 | 37.13632 | -122.02501 | 10143 ft | 311 kts | 339° |
| 2026-04-21 16:50 | 37.15677 | -122.03300 | 9890 ft | 307 kts | 339° |
| 2026-04-21 16:50 | 37.17715 | -122.04099 | 9532 ft | 306 kts | 339° |
| 2026-04-21 16:50 | 37.19747 | -122.04896 | 9199 ft | 305 kts | 339° |
| 2026-04-21 16:51 | 37.21770 | -122.05689 | 8876 ft | 304 kts | 340° |
| 2026-04-21 16:51 | 37.23786 | -122.06478 | 8549 ft | 303 kts | 339° |
| 2026-04-21 16:51 | 37.25796 | -122.07266 | 8251 ft | 301 kts | 339° |
| 2026-04-21 16:51 | 37.27793 | -122.08050 | 7919 ft | 301 kts | 339° |
| 2026-04-21 16:52 | 37.29773 | -122.08831 | 7502 ft | 302 kts | 340° |
| 2026-04-21 16:52 | 37.31793 | -122.09627 | 7116 ft | 297 kts | 339° |
| 2026-04-21 16:52 | 37.33085 | -122.10135 | 6868 ft | 291 kts | 339° |
| 2026-04-21 16:52 | 37.35626 | -122.11135 | 6379 ft | 282 kts | 339° |
| 2026-04-21 16:53 | 37.37473 | -122.11864 | 6057 ft | 282 kts | 339° |
| 2026-04-21 16:53 | 37.39349 | -122.12605 | 6031 ft | 280 kts | 339° |
| 2026-04-21 16:53 | 37.41167 | -122.13321 | 6016 ft | 265 kts | 339° |
| 2026-04-21 16:53 | 37.42874 | -122.13990 | 5853 ft | 252 kts | 339° |
| 2026-04-21 16:54 | 37.44532 | -122.14634 | 5476 ft | 250 kts | 339° |
| 2026-04-21 16:54 | 37.46208 | -122.15299 | 5045 ft | 251 kts | 339° |
| 2026-04-21 16:54 | 37.47842 | -122.15948 | 4975 ft | 241 kts | 339° |
| 2026-04-21 16:54 | 37.49415 | -122.16573 | 4941 ft | 231 kts | 339° |
| 2026-04-21 16:55 | 37.50915 | -122.17118 | 4848 ft | 220 kts | 345° |
| 2026-04-21 16:55 | 37.52393 | -122.17505 | 4603 ft | 216 kts | 345° |
| 2026-04-21 16:55 | 37.53820 | -122.17996 | 4356 ft | 206 kts | 325° |
| 2026-04-21 16:55 | 37.54643 | -122.19253 | 4284 ft | 177 kts | 285° |
| 2026-04-21 16:56 | 37.55384 | -122.20503 | 4056 ft | 188 kts | 321° |
| 2026-04-21 16:56 | 37.56508 | -122.21360 | 3807 ft | 189 kts | 311° |
| 2026-04-21 16:56 | 37.57192 | -122.22752 | 3338 ft | 189 kts | 285° |
| 2026-04-21 16:56 | 37.57695 | -122.24282 | 3036 ft | 184 kts | 287° |
| 2026-04-21 16:57 | 37.58199 | -122.25767 | 2497 ft | 193 kts | 283° |
| 2026-04-21 16:57 | 37.58566 | -122.27430 | 2094 ft | 197 kts | 279° |
| 2026-04-21 16:57 | 37.58885 | -122.29120 | 1591 ft | 199 kts | 279° |
| 2026-04-21 16:57 | 37.59312 | -122.30791 | 1105 ft | 200 kts | 289° |
| 2026-04-21 16:58 | 37.59914 | -122.32329 | 806 ft | 188 kts | 297° |
| 2026-04-21 16:58 | 37.60521 | -122.33732 | 537 ft | 175 kts | 297° |
| 2026-04-21 16:58 | 37.61058 | -122.35017 | 293 ft | 158 kts | 297° |
| 2026-04-21 16:58 | 37.61398 | -122.35828 | 87 ft | 152 kts | 296° |
| 2026-04-21 16:59 | 37.61986 | -122.37232 | 15 ft | 113 kts | 298° |
| 2026-04-21 16:59 | 37.62287 | -122.37939 | 22 ft | 70 kts | 298° |
| 2026-04-21 16:59 | 37.62453 | -122.38306 | 18 ft | 27 kts | 317° |
| 2026-04-21 16:59 | 37.62545 | -122.38364 | 15 ft | 22 kts | 349° |
| 2026-04-21 17:00 | 37.62688 | -122.38355 | 14 ft | 14 kts | 21° |
| 2026-04-21 17:00 | 37.62739 | -122.38325 | 15 ft | 0 kts | 26° |